sensor_id;sensor_type;location;lat;lon;timestamp;pressure;altitude;pressure_sealevel;temperature;humidity
4012;BME280;2020;48.682;9.024;2023-07-30T00:01:31;96065.00;;;17.51;100.00
4012;BME280;2020;48.682;9.024;2023-07-30T00:03:57;96058.72;;;17.52;100.00
4012;BME280;2020;48.682;9.024;2023-07-30T00:06:23;96076.72;;;17.56;100.00
4012;BME280;2020;48.682;9.024;2023-07-30T00:08:48;96070.22;;;17.65;100.00
4012;BME280;2020;48.682;9.024;2023-07-30T00:11:13;96064.16;;;17.64;100.00
4012;BME280;2020;48.682;9.024;2023-07-30T00:13:38;96070.81;;;17.67;100.00
4012;BME280;2020;48.682;9.024;2023-07-30T00:16:04;96059.69;;;17.65;100.00
4012;BME280;2020;48.682;9.024;2023-07-30T00:18:29;96064.75;;;17.60;100.00
4012;BME280;2020;48.682;9.024;2023-07-30T00:20:54;96066.63;;;17.52;100.00
4012;BME280;2020;48.682;9.024;2023-07-30T00:23:19;96065.66;;;17.47;100.00
4012;BME280;2020;48.682;9.024;2023-07-30T00:25:45;96063.78;;;17.54;100.00
4012;BME280;2020;48.682;9.024;2023-07-30T00:28:10;96070.31;;;17.38;100.00
4012;BME280;2020;48.682;9.024;2023-07-30T00:30:35;96070.56;;;17.30;100.00
4012;BME280;2020;48.682;9.024;2023-07-30T00:33:00;96063.50;;;17.23;100.00
4012;BME280;2020;48.682;9.024;2023-07-30T00:35:26;96082.53;;;17.12;100.00
4012;BME280;2020;48.682;9.024;2023-07-30T00:37:51;96082.94;;;17.16;100.00
4012;BME280;2020;48.682;9.024;2023-07-30T00:40:17;96086.19;;;17.11;100.00
4012;BME280;2020;48.682;9.024;2023-07-30T00:42:43;96092.69;;;17.02;100.00
4012;BME280;2020;48.682;9.024;2023-07-30T00:45:09;96081.75;;;17.05;100.00
4012;BME280;2020;48.682;9.024;2023-07-30T00:47:35;96087.00;;;17.05;100.00
4012;BME280;2020;48.682;9.024;2023-07-30T00:50:01;96084.53;;;17.17;100.00
4012;BME280;2020;48.682;9.024;2023-07-30T00:52:26;96085.38;;;17.17;100.00
4012;BME280;2020;48.682;9.024;2023-07-30T00:54:53;96100.72;;;17.27;100.00
4012;BME280;2020;48.682;9.024;2023-07-30T00:57:20;96089.59;;;17.18;100.00
4012;BME280;2020;48.682;9.024;2023-07-30T00:59:46;96093.44;;;17.22;100.00
4012;BME280;2020;48.682;9.024;2023-07-30T01:02:13;96096.25;;;17.28;100.00
4012;BME280;2020;48.682;9.024;2023-07-30T01:04:38;96100.50;;;17.29;100.00
4012;BME280;2020;48.682;9.024;2023-07-30T01:07:05;96096.25;;;17.28;100.00
4012;BME280;2020;48.682;9.024;2023-07-30T01:09:31;96092.63;;;17.22;100.00
4012;BME280;2020;48.682;9.024;2023-07-30T01:11:56;96094.88;;;17.18;100.00
4012;BME280;2020;48.682;9.024;2023-07-30T01:14:22;96091.81;;;17.21;100.00
4012;BME280;2020;48.682;9.024;2023-07-30T01:16:48;96103.53;;;17.25;100.00
4012;BME280;2020;48.682;9.024;2023-07-30T01:19:14;96094.63;;;17.27;100.00
4012;BME280;2020;48.682;9.024;2023-07-30T01:21:39;96097.69;;;17.23;100.00
4012;BME280;2020;48.682;9.024;2023-07-30T01:24:05;96107.19;;;17.18;100.00
4012;BME280;2020;48.682;9.024;2023-07-30T01:26:35;96112.88;;;17.21;100.00
4012;BME280;2020;48.682;9.024;2023-07-30T01:29:07;96109.22;;;17.22;100.00
4012;BME280;2020;48.682;9.024;2023-07-30T01:31:34;96106.41;;;17.17;100.00
4012;BME280;2020;48.682;9.024;2023-07-30T01:34:01;96105.56;;;17.23;100.00
4012;BME280;2020;48.682;9.024;2023-07-30T01:36:28;96116.50;;;17.20;100.00
4012;BME280;2020;48.682;9.024;2023-07-30T01:38:53;96112.06;;;17.14;100.00
4012;BME280;2020;48.682;9.024;2023-07-30T01:41:19;96118.34;;;17.06;100.00
4012;BME280;2020;48.682;9.024;2023-07-30T01:43:44;96115.72;;;17.06;100.00
4012;BME280;2020;48.682;9.024;2023-07-30T01:46:10;96115.75;;;17.00;100.00
4012;BME280;2020;48.682;9.024;2023-07-30T01:48:35;96119.38;;;16.99;100.00
4012;BME280;2020;48.682;9.024;2023-07-30T01:51:00;96122.59;;;16.87;100.00
4012;BME280;2020;48.682;9.024;2023-07-30T01:53:25;96116.75;;;16.72;100.00
4012;BME280;2020;48.682;9.024;2023-07-30T01:55:51;96120.97;;;16.66;100.00
4012;BME280;2020;48.682;9.024;2023-07-30T01:58:16;96120.59;;;16.62;100.00
4012;BME280;2020;48.682;9.024;2023-07-30T02:00:41;96115.75;;;16.59;100.00
4012;BME280;2020;48.682;9.024;2023-07-30T02:03:07;96111.69;;;16.63;100.00
4012;BME280;2020;48.682;9.024;2023-07-30T02:05:32;96110.25;;;16.74;100.00
4012;BME280;2020;48.682;9.024;2023-07-30T02:07:58;96118.75;;;16.76;100.00
4012;BME280;2020;48.682;9.024;2023-07-30T02:10:24;96113.72;;;16.75;100.00
4012;BME280;2020;48.682;9.024;2023-07-30T02:12:49;96103.19;;;16.75;100.00
4012;BME280;2020;48.682;9.024;2023-07-30T02:15:15;96093.47;;;16.75;100.00
4012;BME280;2020;48.682;9.024;2023-07-30T02:17:40;96085.81;;;16.74;100.00
4012;BME280;2020;48.682;9.024;2023-07-30T02:20:06;96091.88;;;16.67;100.00
4012;BME280;2020;48.682;9.024;2023-07-30T02:22:31;96107.84;;;16.73;100.00
4012;BME280;2020;48.682;9.024;2023-07-30T02:24:56;96111.69;;;16.77;100.00
4012;BME280;2020;48.682;9.024;2023-07-30T02:27:22;96118.56;;;16.64;100.00
4012;BME280;2020;48.682;9.024;2023-07-30T02:29:47;96117.34;;;16.60;100.00
4012;BME280;2020;48.682;9.024;2023-07-30T02:32:13;96113.31;;;16.64;100.00
4012;BME280;2020;48.682;9.024;2023-07-30T02:34:38;96126.25;;;16.59;100.00
4012;BME280;2020;48.682;9.024;2023-07-30T02:37:03;96113.72;;;16.61;100.00
4012;BME280;2020;48.682;9.024;2023-07-30T02:39:29;96126.63;;;16.56;100.00
4012;BME280;2020;48.682;9.024;2023-07-30T02:41:54;96116.53;;;16.53;100.00
4012;BME280;2020;48.682;9.024;2023-07-30T02:44:19;96119.38;;;16.58;100.00
4012;BME280;2020;48.682;9.024;2023-07-30T02:46:44;96116.13;;;16.56;100.00
4012;BME280;2020;48.682;9.024;2023-07-30T02:49:09;96114.50;;;16.62;100.00
4012;BME280;2020;48.682;9.024;2023-07-30T02:51:35;96119.38;;;16.58;100.00
4012;BME280;2020;48.682;9.024;2023-07-30T02:54:04;96112.88;;;16.54;100.00
4012;BME280;2020;48.682;9.024;2023-07-30T02:56:30;96112.88;;;16.54;100.00
4012;BME280;2020;48.682;9.024;2023-07-30T02:58:55;96119.75;;;16.55;100.00
4012;BME280;2020;48.682;9.024;2023-07-30T03:01:21;96122.00;;;16.58;100.00
4012;BME280;2020;48.682;9.024;2023-07-30T03:03:46;96126.63;;;16.56;100.00
4012;BME280;2020;48.682;9.024;2023-07-30T03:06:11;96121.38;;;16.56;100.00
4012;BME280;2020;48.682;9.024;2023-07-30T03:08:37;96125.00;;;16.42;100.00
4012;BME280;2020;48.682;9.024;2023-07-30T03:11:03;96118.13;;;16.41;100.00
4012;BME280;2020;48.682;9.024;2023-07-30T03:13:29;96117.72;;;16.44;100.00
4012;BME280;2020;48.682;9.024;2023-07-30T03:15:54;96120.56;;;16.49;100.00
4012;BME280;2020;48.682;9.024;2023-07-30T03:18:19;96113.09;;;16.46;100.00
4012;BME280;2020;48.682;9.024;2023-07-30T03:20:44;96108.84;;;16.45;100.00
4012;BME280;2020;48.682;9.024;2023-07-30T03:23:10;96116.09;;;16.43;100.00
4012;BME280;2020;48.682;9.024;2023-07-30T03:25:35;96118.53;;;16.51;100.00
4012;BME280;2020;48.682;9.024;2023-07-30T03:28:00;96121.38;;;16.49;100.00
4012;BME280;2020;48.682;9.024;2023-07-30T03:30:25;96115.72;;;16.46;100.00
4012;BME280;2020;48.682;9.024;2023-07-30T03:32:50;96112.88;;;16.41;100.00
4012;BME280;2020;48.682;9.024;2023-07-30T03:35:16;96120.16;;;16.45;100.00
4012;BME280;2020;48.682;9.024;2023-07-30T03:37:41;96118.53;;;16.51;100.00
4012;BME280;2020;48.682;9.024;2023-07-30T03:40:07;96119.75;;;16.55;100.00
4012;BME280;2020;48.682;9.024;2023-07-30T03:42:32;96120.97;;;16.52;100.00
4012;BME280;2020;48.682;9.024;2023-07-30T03:44:57;96128.03;;;16.52;100.00
4012;BME280;2020;48.682;9.024;2023-07-30T03:47:23;96125.81;;;16.49;100.00
4012;BME280;2020;48.682;9.024;2023-07-30T03:49:48;96129.03;;;16.51;100.00
4012;BME280;2020;48.682;9.024;2023-07-30T03:52:13;96134.28;;;16.51;100.00
4012;BME280;2020;48.682;9.024;2023-07-30T03:54:39;96147.63;;;16.56;100.00
4012;BME280;2020;48.682;9.024;2023-07-30T03:57:04;96150.47;;;16.55;100.00
4012;BME280;2020;48.682;9.024;2023-07-30T03:59:29;96146.66;;;16.57;100.00
4012;BME280;2020;48.682;9.024;2023-07-30T04:01:54;96137.94;;;16.50;100.00
4012;BME280;2020;48.682;9.024;2023-07-30T04:04:20;96144.81;;;16.51;100.00
4012;BME280;2020;48.682;9.024;2023-07-30T04:06:45;96143.19;;;16.50;100.00
4012;BME280;2020;48.682;9.024;2023-07-30T04:09:10;96150.06;;;16.51;100.00
4012;BME280;2020;48.682;9.024;2023-07-30T04:11:36;96150.06;;;16.51;100.00
4012;BME280;2020;48.682;9.024;2023-07-30T04:14:01;96149.66;;;16.54;100.00
4012;BME280;2020;48.682;9.024;2023-07-30T04:16:26;96142.78;;;16.53;100.00
4012;BME280;2020;48.682;9.024;2023-07-30T04:18:52;96148.03;;;16.53;100.00
4012;BME280;2020;48.682;9.024;2023-07-30T04:21:17;96155.72;;;16.55;100.00
4012;BME280;2020;48.682;9.024;2023-07-30T04:23:42;96159.78;;;16.50;100.00
4012;BME280;2020;48.682;9.024;2023-07-30T04:26:07;96156.72;;;16.47;100.00
4012;BME280;2020;48.682;9.024;2023-07-30T04:28:33;96163.38;;;16.43;100.00
4012;BME280;2020;48.682;9.024;2023-07-30T04:30:58;96171.88;;;16.45;100.00
4012;BME280;2020;48.682;9.024;2023-07-30T04:33:23;96168.03;;;16.41;100.00
4012;BME280;2020;48.682;9.024;2023-07-30T04:35:49;96173.09;;;16.42;100.00
4012;BME280;2020;48.682;9.024;2023-07-30T04:38:14;96170.03;;;16.38;100.00
4012;BME280;2020;48.682;9.024;2023-07-30T04:40:39;96166.19;;;16.34;100.00
4012;BME280;2020;48.682;9.024;2023-07-30T04:43:04;96167.81;;;16.35;100.00
4012;BME280;2020;48.682;9.024;2023-07-30T04:45:30;96167.81;;;16.35;100.00
4012;BME280;2020;48.682;9.024;2023-07-30T04:47:56;96175.91;;;16.41;100.00
4012;BME280;2020;48.682;9.024;2023-07-30T04:50:21;96179.53;;;16.40;100.00
4012;BME280;2020;48.682;9.024;2023-07-30T04:52:46;96181.97;;;16.34;100.00
4012;BME280;2020;48.682;9.024;2023-07-30T04:55:12;96176.88;;;16.26;100.00
4012;BME280;2020;48.682;9.024;2023-07-30T04:57:37;96176.28;;;16.24;100.00
4012;BME280;2020;48.682;9.024;2023-07-30T05:00:03;96184.59;;;16.34;100.00
4012;BME280;2020;48.682;9.024;2023-07-30T05:02:28;96191.25;;;16.44;100.00
4012;BME280;2020;48.682;9.024;2023-07-30T05:04:53;96196.53;;;16.44;100.00
4012;BME280;2020;48.682;9.024;2023-07-30T05:07:19;96186.41;;;16.41;100.00
4012;BME280;2020;48.682;9.024;2023-07-30T05:09:44;96191.66;;;16.41;100.00
4012;BME280;2020;48.682;9.024;2023-07-30T05:12:09;96208.03;;;16.43;100.00
4012;BME280;2020;48.682;9.024;2023-07-30T05:14:34;96197.31;;;16.37;100.00
4012;BME280;2020;48.682;9.024;2023-07-30T05:17:00;96202.16;;;16.41;100.00
4012;BME280;2020;48.682;9.024;2023-07-30T05:19:25;96201.38;;;16.47;100.00
4012;BME280;2020;48.682;9.024;2023-07-30T05:21:50;96200.16;;;16.43;100.00
4012;BME280;2020;48.682;9.024;2023-07-30T05:24:15;96200.97;;;16.50;100.00
4012;BME280;2020;48.682;9.024;2023-07-30T05:26:40;96202.38;;;16.46;100.00
4012;BME280;2020;48.682;9.024;2023-07-30T05:29:06;96198.53;;;16.42;100.00
4012;BME280;2020;48.682;9.024;2023-07-30T05:31:31;96201.56;;;16.38;100.00
4012;BME280;2020;48.682;9.024;2023-07-30T05:33:56;96202.97;;;16.34;100.00
4012;BME280;2020;48.682;9.024;2023-07-30T05:36:22;96201.34;;;16.33;100.00
4012;BME280;2020;48.682;9.024;2023-07-30T05:38:47;96199.34;;;16.29;100.00
4012;BME280;2020;48.682;9.024;2023-07-30T05:41:12;96202.78;;;16.36;100.00
4012;BME280;2020;48.682;9.024;2023-07-30T05:43:37;96198.94;;;16.38;100.00
4012;BME280;2020;48.682;9.024;2023-07-30T05:46:03;96199.53;;;16.41;100.00
4012;BME280;2020;48.682;9.024;2023-07-30T05:48:28;96202.38;;;16.46;100.00
4012;BME280;2020;48.682;9.024;2023-07-30T05:50:53;96199.34;;;16.49;100.00
4012;BME280;2020;48.682;9.024;2023-07-30T05:53:18;96192.50;;;16.48;100.00
4012;BME280;2020;48.682;9.024;2023-07-30T05:55:44;96203.44;;;16.58;100.00
4012;BME280;2020;48.682;9.024;2023-07-30T05:58:09;96194.91;;;16.56;100.00
4012;BME280;2020;48.682;9.024;2023-07-30T06:00:34;96201.81;;;16.57;100.00
4012;BME280;2020;48.682;9.024;2023-07-30T06:02:59;96199.41;;;16.62;100.00
4012;BME280;2020;48.682;9.024;2023-07-30T06:05:25;96201.81;;;16.57;100.00
4012;BME280;2020;48.682;9.024;2023-07-30T06:07:51;96205.66;;;16.61;100.00
4012;BME280;2020;48.682;9.024;2023-07-30T06:10:16;96207.91;;;16.64;100.00
4012;BME280;2020;48.682;9.024;2023-07-30T06:12:41;96200.84;;;16.72;100.00
4012;BME280;2020;48.682;9.024;2023-07-30T06:15:08;96200.63;;;16.73;100.00
4012;BME280;2020;48.682;9.024;2023-07-30T06:17:33;96196.19;;;16.87;100.00
4012;BME280;2020;48.682;9.024;2023-07-30T06:19:59;96192.53;;;16.95;100.00
4012;BME280;2020;48.682;9.024;2023-07-30T06:22:24;96193.19;;;17.04;100.00
4012;BME280;2020;48.682;9.024;2023-07-30T06:24:49;96202.28;;;17.21;100.00
4012;BME280;2020;48.682;9.024;2023-07-30T06:27:14;96198.59;;;17.36;100.00
4012;BME280;2020;48.682;9.024;2023-07-30T06:29:40;96209.31;;;17.41;100.00
4012;BME280;2020;48.682;9.024;2023-07-30T06:32:05;96213.34;;;17.50;100.00
4012;BME280;2020;48.682;9.024;2023-07-30T06:34:31;96221.03;;;17.59;100.00
4012;BME280;2020;48.682;9.024;2023-07-30T06:36:56;96221.22;;;17.64;100.00
4012;BME280;2020;48.682;9.024;2023-07-30T06:39:21;96221.94;;;17.98;100.00
4012;BME280;2020;48.682;9.024;2023-07-30T06:41:47;96213.28;;;18.36;100.00
4012;BME280;2020;48.682;9.024;2023-07-30T06:44:12;96213.56;;;18.60;100.00
4012;BME280;2020;48.682;9.024;2023-07-30T06:46:37;96220.88;;;18.58;100.00
4012;BME280;2020;48.682;9.024;2023-07-30T06:49:02;96233.03;;;18.59;100.00
4012;BME280;2020;48.682;9.024;2023-07-30T06:51:28;96239.31;;;18.58;100.00
4012;BME280;2020;48.682;9.024;2023-07-30T06:53:53;96245.28;;;18.40;100.00
4012;BME280;2020;48.682;9.024;2023-07-30T06:56:18;96244.13;;;18.29;100.00
4012;BME280;2020;48.682;9.024;2023-07-30T06:58:44;96258.81;;;17.98;100.00
4012;BME280;2020;48.682;9.024;2023-07-30T07:01:09;96252.75;;;17.84;100.00
4012;BME280;2020;48.682;9.024;2023-07-30T07:03:34;96247.91;;;17.74;100.00
4012;BME280;2020;48.682;9.024;2023-07-30T07:05:59;96254.78;;;17.75;100.00
4012;BME280;2020;48.682;9.024;2023-07-30T07:08:25;96254.03;;;17.61;100.00
4012;BME280;2020;48.682;9.024;2023-07-30T07:10:50;96264.13;;;17.71;100.00
4012;BME280;2020;48.682;9.024;2023-07-30T07:13:16;96268.59;;;17.57;100.00
4012;BME280;2020;48.682;9.024;2023-07-30T07:15:42;96275.09;;;17.41;100.00
4012;BME280;2020;48.682;9.024;2023-07-30T07:18:07;96282.38;;;17.39;100.00
4012;BME280;2020;48.682;9.024;2023-07-30T07:20:33;96277.13;;;17.32;100.00
4012;BME280;2020;48.682;9.024;2023-07-30T07:22:58;96280.56;;;17.19;100.00
4012;BME280;2020;48.682;9.024;2023-07-30T07:25:23;96268.63;;;17.23;100.00
4012;BME280;2020;48.682;9.024;2023-07-30T07:27:49;96269.00;;;17.14;100.00
4012;BME280;2020;48.682;9.024;2023-07-30T07:30:14;96267.59;;;17.24;100.00
4012;BME280;2020;48.682;9.024;2023-07-30T07:32:39;96275.91;;;17.35;100.00
4012;BME280;2020;48.682;9.024;2023-07-30T07:35:06;96287.22;;;17.42;100.00
4012;BME280;2020;48.682;9.024;2023-07-30T07:37:32;96279.53;;;17.34;100.00
4012;BME280;2020;48.682;9.024;2023-07-30T07:39:57;96291.66;;;17.48;100.00
4012;BME280;2020;48.682;9.024;2023-07-30T07:42:22;96290.25;;;17.52;100.00
4012;BME280;2020;48.682;9.024;2023-07-30T07:44:48;96287.22;;;17.56;100.00
4012;BME280;2020;48.682;9.024;2023-07-30T07:47:13;96285.00;;;17.52;100.00
4012;BME280;2020;48.682;9.024;2023-07-30T07:49:38;96289.25;;;17.53;100.00
4012;BME280;2020;48.682;9.024;2023-07-30T07:52:04;96288.47;;;17.39;100.00
4012;BME280;2020;48.682;9.024;2023-07-30T07:54:29;96276.69;;;17.56;100.00
4012;BME280;2020;48.682;9.024;2023-07-30T07:56:54;96287.59;;;17.66;100.00
4012;BME280;2020;48.682;9.024;2023-07-30T07:59:20;96286.22;;;17.63;100.00
4012;BME280;2020;48.682;9.024;2023-07-30T08:01:45;96281.94;;;17.76;100.00
4012;BME280;2020;48.682;9.024;2023-07-30T08:04:10;96283.75;;;17.75;100.00
4012;BME280;2020;48.682;9.024;2023-07-30T08:06:35;96285.56;;;17.81;100.00
4012;BME280;2020;48.682;9.024;2023-07-30T08:09:01;96294.47;;;17.94;100.00
4012;BME280;2020;48.682;9.024;2023-07-30T08:11:27;96284.53;;;18.09;100.00
4012;BME280;2020;48.682;9.024;2023-07-30T08:13:52;96289.94;;;18.28;100.00
4012;BME280;2020;48.682;9.024;2023-07-30T08:16:17;96270.69;;;18.66;100.00
4012;BME280;2020;48.682;9.024;2023-07-30T08:18:43;96278.59;;;19.05;100.00
4012;BME280;2020;48.682;9.024;2023-07-30T08:21:08;96287.38;;;19.24;100.00
4012;BME280;2020;48.682;9.024;2023-07-30T08:23:34;96286.25;;;19.39;100.00
4012;BME280;2020;48.682;9.024;2023-07-30T08:25:59;96286.97;;;19.27;100.00
4012;BME280;2020;48.682;9.024;2023-07-30T08:28:24;96278.91;;;19.16;98.55
4012;BME280;2020;48.682;9.024;2023-07-30T08:30:50;96284.41;;;19.14;100.00
4012;BME280;2020;48.682;9.024;2023-07-30T08:33:15;96270.78;;;19.17;100.00
4012;BME280;2020;48.682;9.024;2023-07-30T08:35:40;96261.25;;;19.16;100.00
4012;BME280;2020;48.682;9.024;2023-07-30T08:38:05;96266.75;;;19.14;98.45
4012;BME280;2020;48.682;9.024;2023-07-30T08:40:31;96267.34;;;19.42;95.63
4012;BME280;2020;48.682;9.024;2023-07-30T08:42:57;96273.38;;;19.49;99.48
4012;BME280;2020;48.682;9.024;2023-07-30T08:45:22;96273.94;;;19.33;94.92
4012;BME280;2020;48.682;9.024;2023-07-30T08:47:47;96279.63;;;19.29;94.32
4012;BME280;2020;48.682;9.024;2023-07-30T08:50:13;96268.53;;;19.46;95.17
4012;BME280;2020;48.682;9.024;2023-07-30T08:52:38;96279.22;;;19.33;91.32
4012;BME280;2020;48.682;9.024;2023-07-30T08:55:04;96277.03;;;19.48;94.74
4012;BME280;2020;48.682;9.024;2023-07-30T08:57:30;96283.06;;;19.55;91.74
4012;BME280;2020;48.682;9.024;2023-07-30T09:00:05;96275.59;;;19.27;88.94
4012;BME280;2020;48.682;9.024;2023-07-30T09:02:34;96276.72;;;19.12;92.08
4012;BME280;2020;48.682;9.024;2023-07-30T09:05:04;96277.78;;;19.05;94.40
4012;BME280;2020;48.682;9.024;2023-07-30T09:07:30;96288.00;;;18.88;90.97
4012;BME280;2020;48.682;9.024;2023-07-30T09:09:55;96287.28;;;18.74;93.48
4012;BME280;2020;48.682;9.024;2023-07-30T09:12:26;96290.16;;;18.65;95.29
4012;BME280;2020;48.682;9.024;2023-07-30T09:14:51;96292.19;;;18.63;95.62
4012;BME280;2020;48.682;9.024;2023-07-30T09:17:17;96288.97;;;18.61;97.75
4012;BME280;2020;48.682;9.024;2023-07-30T09:19:43;96294.06;;;18.56;97.28
4012;BME280;2020;48.682;9.024;2023-07-30T09:22:08;96300.41;;;18.41;95.41
4012;BME280;2020;48.682;9.024;2023-07-30T09:24:34;96305.69;;;18.41;96.68
4012;BME280;2020;48.682;9.024;2023-07-30T09:27:03;96318.25;;;18.39;97.96
4012;BME280;2020;48.682;9.024;2023-07-30T09:29:28;96315.00;;;18.37;99.19
4012;BME280;2020;48.682;9.024;2023-07-30T09:31:55;96316.88;;;18.30;98.03
4012;BME280;2020;48.682;9.024;2023-07-30T09:34:21;96331.28;;;18.21;96.37
4012;BME280;2020;48.682;9.024;2023-07-30T09:36:50;96327.41;;;18.23;98.86
4012;BME280;2020;48.682;9.024;2023-07-30T09:41:45;96323.56;;;18.26;97.13
4012;BME280;2020;48.682;9.024;2023-07-30T09:44:11;96329.22;;;18.30;95.45
4012;BME280;2020;48.682;9.024;2023-07-30T09:46:44;96330.00;;;18.37;97.82
4012;BME280;2020;48.682;9.024;2023-07-30T09:49:10;96334.00;;;18.46;96.84
4012;BME280;2020;48.682;9.024;2023-07-30T09:51:37;96336.84;;;18.51;97.74
4012;BME280;2020;48.682;9.024;2023-07-30T09:54:03;96338.44;;;18.59;96.05
4012;BME280;2020;48.682;9.024;2023-07-30T09:56:30;96328.66;;;18.66;93.87
4012;BME280;2020;48.682;9.024;2023-07-30T09:58:56;96335.91;;;18.78;90.37
4012;BME280;2020;48.682;9.024;2023-07-30T10:01:22;96339.41;;;19.10;92.48
4012;BME280;2020;48.682;9.024;2023-07-30T10:03:49;96334.34;;;19.41;87.70
4012;BME280;2020;48.682;9.024;2023-07-30T10:06:15;96342.94;;;19.80;89.74
4012;BME280;2020;48.682;9.024;2023-07-30T10:08:41;96343.25;;;19.97;88.14
4012;BME280;2020;48.682;9.024;2023-07-30T10:11:08;96349.03;;;20.25;84.43
4012;BME280;2020;48.682;9.024;2023-07-30T10:13:35;96342.28;;;20.10;80.61
4012;BME280;2020;48.682;9.024;2023-07-30T10:16:01;96342.00;;;20.37;78.07
4012;BME280;2020;48.682;9.024;2023-07-30T10:18:37;96350.44;;;20.46;79.15
4012;BME280;2020;48.682;9.024;2023-07-30T10:21:03;96336.19;;;20.47;74.41
4012;BME280;2020;48.682;9.024;2023-07-30T10:23:32;96340.97;;;20.20;74.05
4012;BME280;2020;48.682;9.024;2023-07-30T10:25:58;96329.59;;;20.19;73.08
4012;BME280;2020;48.682;9.024;2023-07-30T10:31:01;96337.44;;;20.44;76.75
4012;BME280;2020;48.682;9.024;2023-07-30T10:33:49;96346.53;;;20.49;67.82
4012;BME280;2020;48.682;9.024;2023-07-30T10:36:30;96334.34;;;20.48;67.40
4012;BME280;2020;48.682;9.024;2023-07-30T10:38:55;96344.22;;;20.59;72.09
4012;BME280;2020;48.682;9.024;2023-07-30T10:41:21;96342.56;;;20.77;71.56
4012;BME280;2020;48.682;9.024;2023-07-30T10:43:48;96344.34;;;20.83;65.41
4012;BME280;2020;48.682;9.024;2023-07-30T10:46:15;96334.63;;;20.95;65.40
4012;BME280;2020;48.682;9.024;2023-07-30T10:48:42;96344.69;;;21.17;65.19
4012;BME280;2020;48.682;9.024;2023-07-30T10:51:10;96344.94;;;21.27;62.10
4012;BME280;2020;48.682;9.024;2023-07-30T10:53:36;96337.38;;;21.43;64.70
4012;BME280;2020;48.682;9.024;2023-07-30T10:56:03;96342.03;;;21.17;62.97
4012;BME280;2020;48.682;9.024;2023-07-30T10:58:33;96354.28;;;21.30;65.97
4012;BME280;2020;48.682;9.024;2023-07-30T11:03:25;96344.00;;;21.88;60.44
4012;BME280;2020;48.682;9.024;2023-07-30T11:05:51;96326.25;;;22.12;61.56
4012;BME280;2020;48.682;9.024;2023-07-30T11:08:17;96328.56;;;22.09;61.96
4012;BME280;2020;48.682;9.024;2023-07-30T11:10:44;96331.19;;;22.20;59.76
4012;BME280;2020;48.682;9.024;2023-07-30T11:13:16;96330.47;;;22.37;64.36
4012;BME280;2020;48.682;9.024;2023-07-30T11:15:44;96336.91;;;22.41;60.60
4012;BME280;2020;48.682;9.024;2023-07-30T11:18:12;96343.38;;;22.45;63.19
4012;BME280;2020;48.682;9.024;2023-07-30T11:20:37;96341.75;;;22.44;63.68
4012;BME280;2020;48.682;9.024;2023-07-30T11:23:17;96339.22;;;22.49;58.44
4012;BME280;2020;48.682;9.024;2023-07-30T11:25:45;96332.25;;;22.72;65.29
4012;BME280;2020;48.682;9.024;2023-07-30T11:28:11;96339.16;;;22.73;59.04
4012;BME280;2020;48.682;9.024;2023-07-30T11:30:36;96326.25;;;22.65;62.54
4012;BME280;2020;48.682;9.024;2023-07-30T11:33:01;96339.53;;;22.65;58.37
4012;BME280;2020;48.682;9.024;2023-07-30T11:35:27;96335.31;;;22.40;56.89
4012;BME280;2020;48.682;9.024;2023-07-30T11:37:53;96345.78;;;22.59;55.76
4012;BME280;2020;48.682;9.024;2023-07-30T11:40:18;96344.09;;;22.29;57.42
4012;BME280;2020;48.682;9.024;2023-07-30T11:42:44;96337.03;;;22.46;58.24
4012;BME280;2020;48.682;9.024;2023-07-30T11:45:22;96343.03;;;22.83;51.19
4012;BME280;2020;48.682;9.024;2023-07-30T11:47:48;96332.41;;;22.42;54.17
4012;BME280;2020;48.682;9.024;2023-07-30T11:50:15;96347.88;;;22.33;58.61
4012;BME280;2020;48.682;9.024;2023-07-30T11:52:56;96356.22;;;22.77;63.55
4012;BME280;2020;48.682;9.024;2023-07-30T11:55:22;96360.38;;;23.02;59.84
4012;BME280;2020;48.682;9.024;2023-07-30T11:57:49;96373.53;;;22.68;59.01
4012;BME280;2020;48.682;9.024;2023-07-30T12:00:15;96369.66;;;22.35;62.41
4012;BME280;2020;48.682;9.024;2023-07-30T12:02:40;96356.09;;;22.19;59.14
4012;BME280;2020;48.682;9.024;2023-07-30T12:05:06;96365.28;;;21.81;62.43
4012;BME280;2020;48.682;9.024;2023-07-30T12:07:34;96356.06;;;21.72;66.43
4012;BME280;2020;48.682;9.024;2023-07-30T12:10:07;96366.28;;;21.56;63.39
4012;BME280;2020;48.682;9.024;2023-07-30T12:12:33;96372.03;;;21.41;62.35
4012;BME280;2020;48.682;9.024;2023-07-30T12:14:58;96360.88;;;21.51;65.81
4012;BME280;2020;48.682;9.024;2023-07-30T12:17:25;96360.41;;;21.54;63.86
4012;BME280;2020;48.682;9.024;2023-07-30T12:19:50;96361.97;;;21.31;61.45
4012;BME280;2020;48.682;9.024;2023-07-30T12:22:15;96364.88;;;21.30;66.20
4012;BME280;2020;48.682;9.024;2023-07-30T12:24:41;96371.59;;;21.14;62.75
4012;BME280;2020;48.682;9.024;2023-07-30T12:27:06;96369.97;;;21.13;63.60
4012;BME280;2020;48.682;9.024;2023-07-30T12:29:32;96365.72;;;21.12;62.27
4012;BME280;2020;48.682;9.024;2023-07-30T12:31:57;96367.09;;;21.57;63.12
4012;BME280;2020;48.682;9.024;2023-07-30T12:34:23;96363.56;;;22.23;61.40
4012;BME280;2020;48.682;9.024;2023-07-30T12:36:48;96359.53;;;22.32;60.44
4012;BME280;2020;48.682;9.024;2023-07-30T12:39:14;96359.31;;;22.22;59.50
4012;BME280;2020;48.682;9.024;2023-07-30T12:41:39;96378.22;;;22.01;59.11
4012;BME280;2020;48.682;9.024;2023-07-30T12:44:04;96366.41;;;21.61;58.61
4012;BME280;2020;48.682;9.024;2023-07-30T12:46:30;96390.69;;;21.58;63.11
4012;BME280;2020;48.682;9.024;2023-07-30T12:48:57;96386.13;;;21.23;62.68
4012;BME280;2020;48.682;9.024;2023-07-30T12:51:23;96380.44;;;21.08;64.41
4012;BME280;2020;48.682;9.024;2023-07-30T12:53:48;96385.72;;;21.08;65.78
4012;BME280;2020;48.682;9.024;2023-07-30T12:56:13;96390.44;;;21.06;64.27
4012;BME280;2020;48.682;9.024;2023-07-30T12:58:40;96376.66;;;21.58;63.05
4012;BME280;2020;48.682;9.024;2023-07-30T13:01:05;96382.28;;;21.61;59.39
4012;BME280;2020;48.682;9.024;2023-07-30T13:03:30;96377.28;;;22.19;65.05
4012;BME280;2020;48.682;9.024;2023-07-30T13:05:56;96376.03;;;22.10;56.00
4012;BME280;2020;48.682;9.024;2023-07-30T13:08:21;96392.94;;;21.85;58.53
4012;BME280;2020;48.682;9.024;2023-07-30T13:10:47;96401.50;;;21.87;57.31
4012;BME280;2020;48.682;9.024;2023-07-30T13:13:12;96402.75;;;21.85;57.99
4012;BME280;2020;48.682;9.024;2023-07-30T13:15:37;96392.75;;;21.99;58.24